Observations for BURLINGTON INTL, VT (BTV)

KBTV 171854Z 22010KT 10SM SCT037 BKN055 BKN120 28/21 A2972 RMK AO2 LTG DSNT NE RAB14E25 SLP062 CB DSNT ALQDS P0000 T02830206
KBTV 171754Z 19010KT 10SM SCT033 BKN050 BKN120 30/21 A2972 RMK AO2 LTG DSNT NE SLP061 CB DSNT SW-N T03000206 10306 20239 56017  
KBTV 171654Z 19009KT 10SM SCT027 BKN085 BKN110 31/20 A2973 RMK AO2 LTG DSNT N SLP066 CB DSNT W-N T03060200  
KBTV 171554Z 17011KT 10SM SCT050 BKN085 28/20 A2975 RMK AO2 SLP073 T02780200
KBTV 171454Z 19011G18KT 10SM FEW045 BKN075 BKN085 28/19 A2977 RMK AO2 SLP078 T02780194 56007
KBTV 171354Z 18009KT 10SM SCT045 BKN090 25/20 A2977 RMK AO2 SLP078 T02500200
KBTV 171254Z 18009KT 10SM SCT050 BKN110 25/21 A2978 RMK AO2 SLP081 T02500206
KBTV 171154Z 19009KT 10SM FEW050 BKN110 24/21 A2979 RMK AO2 RAE50 SLP086 P0000 60001 70001 T02390211 10272 20239 53003  
KBTV 171054Z 18010KT 9SM -RA FEW075 SCT090 OVC110 24/21 A2978 RMK AO2 RAE04B30 SLP082 P0000 T02440211   
KBTV 170954Z 19005KT 10SM -RA SCT110 BKN140 25/22 A2978 RMK AO2 RAB25 SLP083 P0001 T02500217
KBTV 170854Z 26003KT 10SM FEW110 25/22 A2978 RMK AO2 RAB11E44 SLP083 P0000 60000 T02500217 53003
KBTV 170754Z 20011KT 10SM BKN100 27/21 A2977 RMK AO2 SLP079 T02670206   
KBTV 170654Z 19014KT 10SM FEW090 SCT110 27/20 A2977 RMK AO2 SLP077 T02670200
KBTV 170554Z 17010KT 10SM FEW075 SCT110 27/19 A2977 RMK AO2 SLP079 T02670194 10300 20267 58013  
KBTV 170454Z 19011KT 10SM CLR 28/18 A2981 RMK AO2 SLP090 T02780178 403560167
KBTV 170354Z 18011KT 10SM SCT085 BKN200 28/18 A2982 RMK AO2 SLP094 LAST T02830178   
KBTV 170254Z 18009KT 10SM FEW080 SCT095 29/16 A2981 RMK AO2 SLP093 T02890161 57003  
KBTV 170154Z 16006KT 10SM BKN080 BKN090 29/15 A2982 RMK AO2 SLP097 T02940150
KBTV 170054Z 11003KT 10SM SCT100 BKN200 28/14 A2981 RMK AO2 SLP092 T02780144
KBTV 162354Z 13004KT 10SM SCT100 BKN200 31/13 A2982 RMK AO2 SLP096 T03060128 10356 20306 56013  
KBTV 162254Z 16005KT 10SM BKN200 32/11 A2982 RMK AO2 SLP097 T03220111   
KBTV 162154Z 16007KT 10SM BKN200 33/09 A2984 RMK AO2 SLP103 T03330094   
KBTV 162054Z COR 18008KT 10SM BKN200 34/08 A2986 RMK AO2 SLP109 T03440083 56021 
KBTV 161954Z 17005KT 10SM FEW110 SCT200 BKN250 35/09 A2988 RMK AO2 SLP114 T03500094 
KBTV 161854Z 15005KT 10SM FEW110 SCT200 SCT250 34/08 A2989 RMK AO2 SLP121 T03440083